Terminal Aerodrome Forecast
Issued by NWS Flagstaff, AZ

Home | Current Version | Previous Version | Text Only | Print | Product List | Glossary On
Versions: 1 2 3 4 5 6 7 8 9 10 11 12 13 14 15 16
000
FTUS45 KFGZ 170531
TAFINW
TAF
KINW 170531Z 1706/1806 24008KT P6SM SKC
     FM170800 12005KT P6SM SKC
     FM172000 21009KT P6SM SKC
     FM180300 24010KT P6SM SKC=

USA.gov is the U.S. government's official web portal to all federal, state and local government web resources and services.